sensor_id;sensor_type;location;lat;lon;timestamp;P1;durP1;ratioP1;P2;durP2;ratioP2
37593;SDS011;23441;50.856;6.076;2023-07-31T00:00:14;12.68;;;4.68;;
37593;SDS011;23441;50.856;6.076;2023-07-31T00:02:39;21.73;;;4.72;;
37593;SDS011;23441;50.856;6.076;2023-07-31T00:05:05;10.30;;;4.55;;
37593;SDS011;23441;50.856;6.076;2023-07-31T00:07:33;10.57;;;4.32;;
37593;SDS011;23441;50.856;6.076;2023-07-31T00:09:58;13.57;;;4.68;;
37593;SDS011;23441;50.856;6.076;2023-07-31T00:12:24;12.13;;;4.57;;
37593;SDS011;23441;50.856;6.076;2023-07-31T00:14:49;14.40;;;4.68;;
37593;SDS011;23441;50.856;6.076;2023-07-31T00:17:16;9.75;;;4.03;;
37593;SDS011;23441;50.856;6.076;2023-07-31T00:19:42;9.95;;;3.92;;
37593;SDS011;23441;50.856;6.076;2023-07-31T00:22:07;14.57;;;4.60;;
37593;SDS011;23441;50.856;6.076;2023-07-31T00:24:33;8.38;;;4.32;;
37593;SDS011;23441;50.856;6.076;2023-07-31T00:26:58;10.50;;;4.10;;
37593;SDS011;23441;50.856;6.076;2023-07-31T00:29:24;13.02;;;4.15;;
37593;SDS011;23441;50.856;6.076;2023-07-31T00:31:50;13.40;;;5.03;;
37593;SDS011;23441;50.856;6.076;2023-07-31T00:34:15;13.23;;;4.88;;
37593;SDS011;23441;50.856;6.076;2023-07-31T00:36:41;12.00;;;3.95;;
37593;SDS011;23441;50.856;6.076;2023-07-31T00:39:06;11.38;;;4.93;;
37593;SDS011;23441;50.856;6.076;2023-07-31T00:41:32;12.57;;;4.15;;
37593;SDS011;23441;50.856;6.076;2023-07-31T00:43:57;12.82;;;4.22;;
37593;SDS011;23441;50.856;6.076;2023-07-31T00:46:23;9.85;;;3.55;;
37593;SDS011;23441;50.856;6.076;2023-07-31T00:48:49;11.20;;;4.38;;
37593;SDS011;23441;50.856;6.076;2023-07-31T00:51:14;12.45;;;4.47;;
37593;SDS011;23441;50.856;6.076;2023-07-31T00:53:40;10.75;;;4.40;;
37593;SDS011;23441;50.856;6.076;2023-07-31T00:56:07;13.57;;;4.60;;
37593;SDS011;23441;50.856;6.076;2023-07-31T00:58:33;9.82;;;3.70;;
37593;SDS011;23441;50.856;6.076;2023-07-31T01:00:59;11.70;;;4.32;;
37593;SDS011;23441;50.856;6.076;2023-07-31T01:03:24;8.10;;;3.97;;
37593;SDS011;23441;50.856;6.076;2023-07-31T01:06:04;10.75;;;4.55;;
37593;SDS011;23441;50.856;6.076;2023-07-31T01:08:58;8.20;;;3.90;;
37593;SDS011;23441;50.856;6.076;2023-07-31T01:11:31;9.32;;;4.30;;
37593;SDS011;23441;50.856;6.076;2023-07-31T01:14:03;10.30;;;4.95;;
37593;SDS011;23441;50.856;6.076;2023-07-31T01:16:29;9.73;;;4.65;;
37593;SDS011;23441;50.856;6.076;2023-07-31T01:18:54;9.45;;;4.47;;
37593;SDS011;23441;50.856;6.076;2023-07-31T01:26:47;7.97;;;4.32;;
37593;SDS011;23441;50.856;6.076;2023-07-31T01:32:16;18.83;;;4.93;;
37593;SDS011;23441;50.856;6.076;2023-07-31T01:34:44;11.02;;;4.70;;
37593;SDS011;23441;50.856;6.076;2023-07-31T01:37:11;12.98;;;4.55;;
37593;SDS011;23441;50.856;6.076;2023-07-31T01:39:37;8.27;;;4.65;;
37593;SDS011;23441;50.856;6.076;2023-07-31T01:42:02;11.52;;;4.97;;
37593;SDS011;23441;50.856;6.076;2023-07-31T01:44:28;20.30;;;4.75;;
37593;SDS011;23441;50.856;6.076;2023-07-31T01:46:54;14.52;;;5.00;;
37593;SDS011;23441;50.856;6.076;2023-07-31T01:49:19;12.93;;;4.97;;
37593;SDS011;23441;50.856;6.076;2023-07-31T01:51:45;11.57;;;4.85;;
37593;SDS011;23441;50.856;6.076;2023-07-31T01:54:11;11.73;;;4.57;;
37593;SDS011;23441;50.856;6.076;2023-07-31T01:56:36;11.00;;;5.13;;
37593;SDS011;23441;50.856;6.076;2023-07-31T01:59:02;9.93;;;4.93;;
37593;SDS011;23441;50.856;6.076;2023-07-31T02:01:27;12.95;;;4.53;;
37593;SDS011;23441;50.856;6.076;2023-07-31T02:03:53;9.95;;;4.30;;
37593;SDS011;23441;50.856;6.076;2023-07-31T02:06:19;13.25;;;4.30;;
37593;SDS011;23441;50.856;6.076;2023-07-31T02:08:45;10.65;;;4.70;;
37593;SDS011;23441;50.856;6.076;2023-07-31T02:11:10;12.05;;;4.85;;
37593;SDS011;23441;50.856;6.076;2023-07-31T02:13:36;10.63;;;5.07;;
37593;SDS011;23441;50.856;6.076;2023-07-31T02:16:01;12.40;;;5.47;;
37593;SDS011;23441;50.856;6.076;2023-07-31T02:18:27;16.48;;;5.75;;
37593;SDS011;23441;50.856;6.076;2023-07-31T02:20:53;15.25;;;5.25;;
37593;SDS011;23441;50.856;6.076;2023-07-31T02:23:19;11.18;;;5.10;;
37593;SDS011;23441;50.856;6.076;2023-07-31T02:25:45;11.48;;;4.93;;
37593;SDS011;23441;50.856;6.076;2023-07-31T02:28:10;13.70;;;4.57;;
37593;SDS011;23441;50.856;6.076;2023-07-31T02:30:36;11.13;;;5.22;;
37593;SDS011;23441;50.856;6.076;2023-07-31T02:33:02;12.27;;;4.40;;
37593;SDS011;23441;50.856;6.076;2023-07-31T02:35:29;12.15;;;4.43;;
37593;SDS011;23441;50.856;6.076;2023-07-31T02:37:54;11.93;;;4.65;;
37593;SDS011;23441;50.856;6.076;2023-07-31T02:40:20;12.45;;;5.05;;
37593;SDS011;23441;50.856;6.076;2023-07-31T02:42:45;9.93;;;4.10;;
37593;SDS011;23441;50.856;6.076;2023-07-31T02:45:11;13.02;;;5.05;;
37593;SDS011;23441;50.856;6.076;2023-07-31T02:47:37;12.50;;;4.93;;
37593;SDS011;23441;50.856;6.076;2023-07-31T02:50:02;13.38;;;5.18;;
37593;SDS011;23441;50.856;6.076;2023-07-31T02:52:28;15.15;;;5.85;;
37593;SDS011;23441;50.856;6.076;2023-07-31T02:54:54;11.43;;;4.88;;
37593;SDS011;23441;50.856;6.076;2023-07-31T02:57:20;10.25;;;5.00;;
37593;SDS011;23441;50.856;6.076;2023-07-31T02:59:45;14.27;;;4.88;;
37593;SDS011;23441;50.856;6.076;2023-07-31T03:02:11;20.88;;;6.50;;
37593;SDS011;23441;50.856;6.076;2023-07-31T03:04:38;13.63;;;5.22;;
37593;SDS011;23441;50.856;6.076;2023-07-31T03:07:04;10.55;;;5.18;;
37593;SDS011;23441;50.856;6.076;2023-07-31T03:09:30;10.20;;;5.05;;
37593;SDS011;23441;50.856;6.076;2023-07-31T03:11:55;11.75;;;5.13;;
37593;SDS011;23441;50.856;6.076;2023-07-31T03:14:21;11.93;;;5.45;;
37593;SDS011;23441;50.856;6.076;2023-07-31T03:16:47;15.63;;;5.82;;
37593;SDS011;23441;50.856;6.076;2023-07-31T03:19:13;10.05;;;5.40;;
37593;SDS011;23441;50.856;6.076;2023-07-31T03:21:38;19.67;;;5.82;;
37593;SDS011;23441;50.856;6.076;2023-07-31T03:24:04;11.70;;;5.47;;
37593;SDS011;23441;50.856;6.076;2023-07-31T03:26:33;15.25;;;5.90;;
37593;SDS011;23441;50.856;6.076;2023-07-31T03:28:59;12.32;;;5.63;;
37593;SDS011;23441;50.856;6.076;2023-07-31T03:31:24;11.50;;;4.80;;
37593;SDS011;23441;50.856;6.076;2023-07-31T03:33:50;11.73;;;5.28;;
37593;SDS011;23441;50.856;6.076;2023-07-31T03:36:15;10.32;;;5.35;;
37593;SDS011;23441;50.856;6.076;2023-07-31T03:38:41;13.27;;;5.70;;
37593;SDS011;23441;50.856;6.076;2023-07-31T03:41:06;12.57;;;5.10;;
37593;SDS011;23441;50.856;6.076;2023-07-31T03:43:32;9.80;;;5.57;;
37593;SDS011;23441;50.856;6.076;2023-07-31T03:46:01;13.02;;;5.43;;
37593;SDS011;23441;50.856;6.076;2023-07-31T03:48:27;9.93;;;4.93;;
37593;SDS011;23441;50.856;6.076;2023-07-31T03:50:53;12.40;;;5.07;;
37593;SDS011;23441;50.856;6.076;2023-07-31T03:53:18;11.88;;;5.07;;
37593;SDS011;23441;50.856;6.076;2023-07-31T03:55:44;13.30;;;5.28;;
37593;SDS011;23441;50.856;6.076;2023-07-31T03:58:10;8.88;;;4.70;;
37593;SDS011;23441;50.856;6.076;2023-07-31T04:00:35;11.73;;;4.32;;
37593;SDS011;23441;50.856;6.076;2023-07-31T04:03:01;8.00;;;4.82;;
37593;SDS011;23441;50.856;6.076;2023-07-31T04:05:27;9.65;;;4.60;;
37593;SDS011;23441;50.856;6.076;2023-07-31T04:07:52;11.38;;;5.22;;
37593;SDS011;23441;50.856;6.076;2023-07-31T04:10:18;9.07;;;5.05;;
37593;SDS011;23441;50.856;6.076;2023-07-31T04:12:43;11.43;;;4.93;;
37593;SDS011;23441;50.856;6.076;2023-07-31T04:15:09;10.45;;;4.78;;
37593;SDS011;23441;50.856;6.076;2023-07-31T04:17:35;8.10;;;4.57;;
37593;SDS011;23441;50.856;6.076;2023-07-31T04:20:01;7.57;;;4.45;;
37593;SDS011;23441;50.856;6.076;2023-07-31T04:22:27;9.32;;;4.75;;
37593;SDS011;23441;50.856;6.076;2023-07-31T04:24:53;7.30;;;4.32;;
37593;SDS011;23441;50.856;6.076;2023-07-31T04:27:18;7.78;;;4.60;;
37593;SDS011;23441;50.856;6.076;2023-07-31T04:29:44;10.05;;;4.68;;
37593;SDS011;23441;50.856;6.076;2023-07-31T04:32:11;8.75;;;4.47;;
37593;SDS011;23441;50.856;6.076;2023-07-31T04:34:37;13.02;;;4.57;;
37593;SDS011;23441;50.856;6.076;2023-07-31T04:37:03;13.18;;;4.85;;
37593;SDS011;23441;50.856;6.076;2023-07-31T04:39:28;8.07;;;4.70;;
37593;SDS011;23441;50.856;6.076;2023-07-31T04:41:54;9.35;;;4.82;;
37593;SDS011;23441;50.856;6.076;2023-07-31T04:44:20;10.90;;;4.70;;
37593;SDS011;23441;50.856;6.076;2023-07-31T04:46:45;11.20;;;4.63;;
37593;SDS011;23441;50.856;6.076;2023-07-31T04:49:11;9.73;;;4.32;;
37593;SDS011;23441;50.856;6.076;2023-07-31T04:51:37;9.98;;;4.22;;
37593;SDS011;23441;50.856;6.076;2023-07-31T04:54:02;8.20;;;4.55;;
37593;SDS011;23441;50.856;6.076;2023-07-31T04:56:28;8.10;;;3.90;;
37593;SDS011;23441;50.856;6.076;2023-07-31T04:58:53;7.18;;;3.85;;
37593;SDS011;23441;50.856;6.076;2023-07-31T05:01:20;7.25;;;4.13;;
37593;SDS011;23441;50.856;6.076;2023-07-31T05:03:45;8.50;;;5.05;;
37593;SDS011;23441;50.856;6.076;2023-07-31T05:06:11;9.52;;;4.00;;
37593;SDS011;23441;50.856;6.076;2023-07-31T05:08:38;8.40;;;3.92;;
37593;SDS011;23441;50.856;6.076;2023-07-31T05:11:04;7.70;;;3.83;;
37593;SDS011;23441;50.856;6.076;2023-07-31T05:13:30;8.80;;;3.75;;
37593;SDS011;23441;50.856;6.076;2023-07-31T05:15:55;5.88;;;3.35;;
37593;SDS011;23441;50.856;6.076;2023-07-31T05:18:21;10.07;;;3.78;;
37593;SDS011;23441;50.856;6.076;2023-07-31T05:20:46;8.40;;;3.80;;
37593;SDS011;23441;50.856;6.076;2023-07-31T05:23:12;10.38;;;3.90;;
37593;SDS011;23441;50.856;6.076;2023-07-31T05:25:37;7.35;;;3.97;;
37593;SDS011;23441;50.856;6.076;2023-07-31T05:28:03;7.07;;;3.85;;
37593;SDS011;23441;50.856;6.076;2023-07-31T05:30:30;9.90;;;4.40;;
37593;SDS011;23441;50.856;6.076;2023-07-31T05:32:56;7.50;;;4.05;;
37593;SDS011;23441;50.856;6.076;2023-07-31T05:35:21;7.47;;;4.18;;
37593;SDS011;23441;50.856;6.076;2023-07-31T05:37:47;8.02;;;3.85;;
37593;SDS011;23441;50.856;6.076;2023-07-31T05:40:13;7.18;;;4.00;;
37593;SDS011;23441;50.856;6.076;2023-07-31T05:42:39;6.90;;;4.20;;
37593;SDS011;23441;50.856;6.076;2023-07-31T05:45:06;6.93;;;4.00;;
37593;SDS011;23441;50.856;6.076;2023-07-31T05:47:32;10.18;;;4.03;;
37593;SDS011;23441;50.856;6.076;2023-07-31T05:49:58;8.73;;;4.50;;
37593;SDS011;23441;50.856;6.076;2023-07-31T05:52:23;6.90;;;4.07;;
37593;SDS011;23441;50.856;6.076;2023-07-31T05:54:49;8.77;;;4.13;;
37593;SDS011;23441;50.856;6.076;2023-07-31T05:57:15;9.70;;;4.00;;
37593;SDS011;23441;50.856;6.076;2023-07-31T05:59:41;12.85;;;4.22;;
37593;SDS011;23441;50.856;6.076;2023-07-31T06:02:07;11.10;;;4.65;;
37593;SDS011;23441;50.856;6.076;2023-07-31T06:04:33;10.13;;;3.88;;
37593;SDS011;23441;50.856;6.076;2023-07-31T06:06:58;10.52;;;4.25;;
37593;SDS011;23441;50.856;6.076;2023-07-31T06:09:25;13.77;;;4.53;;
37593;SDS011;23441;50.856;6.076;2023-07-31T06:11:50;7.50;;;3.90;;
37593;SDS011;23441;50.856;6.076;2023-07-31T06:14:16;7.80;;;4.03;;
37593;SDS011;23441;50.856;6.076;2023-07-31T06:16:42;9.70;;;3.90;;
37593;SDS011;23441;50.856;6.076;2023-07-31T06:19:09;7.13;;;3.78;;
37593;SDS011;23441;50.856;6.076;2023-07-31T06:21:34;12.55;;;3.95;;
37593;SDS011;23441;50.856;6.076;2023-07-31T06:24:02;8.73;;;3.47;;
37593;SDS011;23441;50.856;6.076;2023-07-31T06:26:28;10.40;;;3.80;;
37593;SDS011;23441;50.856;6.076;2023-07-31T06:28:54;8.68;;;4.47;;
37593;SDS011;23441;50.856;6.076;2023-07-31T06:31:19;6.38;;;3.28;;
37593;SDS011;23441;50.856;6.076;2023-07-31T06:33:48;7.43;;;3.25;;
37593;SDS011;23441;50.856;6.076;2023-07-31T06:36:16;9.70;;;3.70;;
37593;SDS011;23441;50.856;6.076;2023-07-31T06:38:42;8.98;;;3.85;;
37593;SDS011;23441;50.856;6.076;2023-07-31T06:41:07;7.03;;;3.45;;
37593;SDS011;23441;50.856;6.076;2023-07-31T06:43:35;6.78;;;3.75;;
37593;SDS011;23441;50.856;6.076;2023-07-31T06:46:05;7.63;;;3.80;;
37593;SDS011;23441;50.856;6.076;2023-07-31T06:48:32;9.65;;;4.10;;
37593;SDS011;23441;50.856;6.076;2023-07-31T06:50:58;11.18;;;3.90;;
37593;SDS011;23441;50.856;6.076;2023-07-31T06:53:23;7.75;;;3.83;;
37593;SDS011;23441;50.856;6.076;2023-07-31T06:55:49;10.45;;;3.67;;
37593;SDS011;23441;50.856;6.076;2023-07-31T06:58:17;8.38;;;3.60;;
37593;SDS011;23441;50.856;6.076;2023-07-31T07:00:43;10.07;;;4.25;;
37593;SDS011;23441;50.856;6.076;2023-07-31T07:03:09;8.30;;;3.55;;
37593;SDS011;23441;50.856;6.076;2023-07-31T07:05:34;9.68;;;3.55;;
37593;SDS011;23441;50.856;6.076;2023-07-31T07:08:00;10.32;;;3.65;;
37593;SDS011;23441;50.856;6.076;2023-07-31T07:10:26;7.45;;;3.38;;
37593;SDS011;23441;50.856;6.076;2023-07-31T07:12:51;7.72;;;3.60;;
37593;SDS011;23441;50.856;6.076;2023-07-31T07:15:17;6.53;;;3.95;;
37593;SDS011;23441;50.856;6.076;2023-07-31T07:17:43;7.78;;;3.80;;
37593;SDS011;23441;50.856;6.076;2023-07-31T07:20:08;6.38;;;3.65;;
37593;SDS011;23441;50.856;6.076;2023-07-31T07:22:34;7.50;;;3.92;;
37593;SDS011;23441;50.856;6.076;2023-07-31T07:25:00;15.30;;;4.22;;
37593;SDS011;23441;50.856;6.076;2023-07-31T07:27:26;9.63;;;4.57;;
37593;SDS011;23441;50.856;6.076;2023-07-31T07:29:52;12.13;;;4.68;;
37593;SDS011;23441;50.856;6.076;2023-07-31T07:32:18;8.45;;;4.30;;
37593;SDS011;23441;50.856;6.076;2023-07-31T07:34:44;7.32;;;3.55;;
37593;SDS011;23441;50.856;6.076;2023-07-31T07:37:09;7.50;;;4.20;;
37593;SDS011;23441;50.856;6.076;2023-07-31T07:39:35;10.70;;;4.07;;
37593;SDS011;23441;50.856;6.076;2023-07-31T07:42:01;8.65;;;4.20;;
37593;SDS011;23441;50.856;6.076;2023-07-31T07:44:26;8.80;;;4.20;;
37593;SDS011;23441;50.856;6.076;2023-07-31T07:46:52;7.72;;;4.22;;
37593;SDS011;23441;50.856;6.076;2023-07-31T07:49:17;6.05;;;4.20;;
37593;SDS011;23441;50.856;6.076;2023-07-31T07:51:43;7.05;;;4.55;;
37593;SDS011;23441;50.856;6.076;2023-07-31T07:54:08;7.13;;;4.20;;
37593;SDS011;23441;50.856;6.076;2023-07-31T07:56:34;8.93;;;4.60;;
37593;SDS011;23441;50.856;6.076;2023-07-31T07:59:01;6.97;;;4.35;;
37593;SDS011;23441;50.856;6.076;2023-07-31T08:01:26;7.95;;;4.18;;
37593;SDS011;23441;50.856;6.076;2023-07-31T08:03:52;10.02;;;4.15;;
37593;SDS011;23441;50.856;6.076;2023-07-31T08:06:18;10.80;;;4.32;;
37593;SDS011;23441;50.856;6.076;2023-07-31T08:08:44;8.60;;;3.75;;
37593;SDS011;23441;50.856;6.076;2023-07-31T08:11:09;6.55;;;3.58;;
37593;SDS011;23441;50.856;6.076;2023-07-31T08:13:35;12.65;;;3.83;;
37593;SDS011;23441;50.856;6.076;2023-07-31T08:16:04;10.52;;;3.97;;
37593;SDS011;23441;50.856;6.076;2023-07-31T08:18:30;8.35;;;3.70;;
37593;SDS011;23441;50.856;6.076;2023-07-31T08:20:57;7.00;;;3.28;;
37593;SDS011;23441;50.856;6.076;2023-07-31T08:23:22;6.40;;;3.33;;
37593;SDS011;23441;50.856;6.076;2023-07-31T08:25:48;6.97;;;3.13;;
37593;SDS011;23441;50.856;6.076;2023-07-31T08:28:15;6.03;;;3.20;;
37593;SDS011;23441;50.856;6.076;2023-07-31T08:30:41;8.55;;;3.85;;
37593;SDS011;23441;50.856;6.076;2023-07-31T08:33:07;9.55;;;3.72;;
37593;SDS011;23441;50.856;6.076;2023-07-31T08:35:32;10.57;;;4.07;;
37593;SDS011;23441;50.856;6.076;2023-07-31T08:37:58;12.98;;;4.38;;
37593;SDS011;23441;50.856;6.076;2023-07-31T08:40:24;8.82;;;3.75;;
37593;SDS011;23441;50.856;6.076;2023-07-31T08:42:54;6.43;;;3.60;;
37593;SDS011;23441;50.856;6.076;2023-07-31T08:45:27;7.03;;;3.90;;
37593;SDS011;23441;50.856;6.076;2023-07-31T08:47:53;11.45;;;3.78;;
37593;SDS011;23441;50.856;6.076;2023-07-31T08:50:22;10.52;;;3.85;;
37593;SDS011;23441;50.856;6.076;2023-07-31T08:52:48;7.75;;;3.92;;
37593;SDS011;23441;50.856;6.076;2023-07-31T08:55:15;8.60;;;3.80;;
37593;SDS011;23441;50.856;6.076;2023-07-31T08:57:41;6.28;;;3.85;;
37593;SDS011;23441;50.856;6.076;2023-07-31T09:00:08;9.45;;;3.50;;
37593;SDS011;23441;50.856;6.076;2023-07-31T09:05:22;7.13;;;3.65;;
37593;SDS011;23441;50.856;6.076;2023-07-31T09:07:49;8.52;;;4.32;;
37593;SDS011;23441;50.856;6.076;2023-07-31T09:10:16;9.30;;;3.67;;
37593;SDS011;23441;50.856;6.076;2023-07-31T09:12:41;7.30;;;3.95;;
37593;SDS011;23441;50.856;6.076;2023-07-31T09:15:08;7.80;;;3.63;;
37593;SDS011;23441;50.856;6.076;2023-07-31T09:17:35;8.35;;;4.57;;
37593;SDS011;23441;50.856;6.076;2023-07-31T09:20:20;8.82;;;4.25;;
37593;SDS011;23441;50.856;6.076;2023-07-31T09:22:47;8.25;;;4.13;;
37593;SDS011;23441;50.856;6.076;2023-07-31T09:30:16;9.05;;;4.07;;
37593;SDS011;23441;50.856;6.076;2023-07-31T09:32:43;8.88;;;3.42;;
37593;SDS011;23441;50.856;6.076;2023-07-31T09:35:28;9.70;;;4.05;;
37593;SDS011;23441;50.856;6.076;2023-07-31T09:37:59;9.45;;;4.03;;
37593;SDS011;23441;50.856;6.076;2023-07-31T09:40:30;7.97;;;4.38;;
37593;SDS011;23441;50.856;6.076;2023-07-31T09:42:58;7.45;;;4.03;;
37593;SDS011;23441;50.856;6.076;2023-07-31T09:45:25;7.72;;;4.28;;
37593;SDS011;23441;50.856;6.076;2023-07-31T09:47:51;12.18;;;4.30;;
37593;SDS011;23441;50.856;6.076;2023-07-31T09:50:17;7.53;;;3.88;;
37593;SDS011;23441;50.856;6.076;2023-07-31T09:52:44;11.65;;;4.30;;
37593;SDS011;23441;50.856;6.076;2023-07-31T09:55:10;10.07;;;4.10;;
37593;SDS011;23441;50.856;6.076;2023-07-31T09:57:39;6.03;;;4.07;;
37593;SDS011;23441;50.856;6.076;2023-07-31T10:00:09;9.70;;;4.68;;
37593;SDS011;23441;50.856;6.076;2023-07-31T10:02:36;8.45;;;4.13;;
37593;SDS011;23441;50.856;6.076;2023-07-31T10:05:03;7.78;;;3.72;;
37593;SDS011;23441;50.856;6.076;2023-07-31T10:07:30;9.98;;;3.65;;
37593;SDS011;23441;50.856;6.076;2023-07-31T10:09:59;6.75;;;3.47;;
37593;SDS011;23441;50.856;6.076;2023-07-31T10:12:25;7.00;;;3.38;;
37593;SDS011;23441;50.856;6.076;2023-07-31T10:14:54;5.35;;;3.45;;
37593;SDS011;23441;50.856;6.076;2023-07-31T10:17:20;7.88;;;3.13;;
37593;SDS011;23441;50.856;6.076;2023-07-31T10:19:48;6.60;;;3.22;;
37593;SDS011;23441;50.856;6.076;2023-07-31T10:22:15;4.35;;;3.35;;
37593;SDS011;23441;50.856;6.076;2023-07-31T10:24:44;6.43;;;2.92;;
37593;SDS011;23441;50.856;6.076;2023-07-31T10:27:11;5.53;;;3.08;;
37593;SDS011;23441;50.856;6.076;2023-07-31T10:29:37;4.35;;;2.75;;
37593;SDS011;23441;50.856;6.076;2023-07-31T10:32:05;3.38;;;2.60;;
37593;SDS011;23441;50.856;6.076;2023-07-31T10:34:35;3.38;;;2.40;;
37593;SDS011;23441;50.856;6.076;2023-07-31T10:39:55;5.25;;;2.30;;
37593;SDS011;23441;50.856;6.076;2023-07-31T10:42:29;3.10;;;2.45;;
37593;SDS011;23441;50.856;6.076;2023-07-31T10:44:59;4.22;;;2.53;;
37593;SDS011;23441;50.856;6.076;2023-07-31T10:47:27;5.28;;;2.10;;
37593;SDS011;23441;50.856;6.076;2023-07-31T10:49:52;4.30;;;2.25;;
37593;SDS011;23441;50.856;6.076;2023-07-31T10:52:35;5.05;;;2.03;;
37593;SDS011;23441;50.856;6.076;2023-07-31T10:57:48;3.80;;;1.92;;
37593;SDS011;23441;50.856;6.076;2023-07-31T11:00:27;4.97;;;2.17;;
37593;SDS011;23441;50.856;6.076;2023-07-31T11:08:24;3.60;;;2.10;;
37593;SDS011;23441;50.856;6.076;2023-07-31T11:10:51;4.68;;;2.30;;
37593;SDS011;23441;50.856;6.076;2023-07-31T11:13:44;6.03;;;2.28;;
37593;SDS011;23441;50.856;6.076;2023-07-31T11:16:11;3.83;;;2.08;;
37593;SDS011;23441;50.856;6.076;2023-07-31T11:18:40;2.85;;;2.08;;
37593;SDS011;23441;50.856;6.076;2023-07-31T11:21:08;8.43;;;2.60;;
37593;SDS011;23441;50.856;6.076;2023-07-31T11:23:37;4.35;;;2.30;;
37593;SDS011;23441;50.856;6.076;2023-07-31T11:26:04;4.90;;;2.53;;
37593;SDS011;23441;50.856;6.076;2023-07-31T11:28:34;7.03;;;2.50;;
37593;SDS011;23441;50.856;6.076;2023-07-31T11:31:01;4.80;;;2.42;;
37593;SDS011;23441;50.856;6.076;2023-07-31T11:33:27;6.22;;;2.70;;
37593;SDS011;23441;50.856;6.076;2023-07-31T11:35:53;5.30;;;2.63;;
37593;SDS011;23441;50.856;6.076;2023-07-31T11:40:58;5.30;;;2.78;;
37593;SDS011;23441;50.856;6.076;2023-07-31T11:43:27;4.18;;;2.67;;
37593;SDS011;23441;50.856;6.076;2023-07-31T11:45:56;4.97;;;2.67;;
37593;SDS011;23441;50.856;6.076;2023-07-31T11:50:59;4.55;;;2.67;;
37593;SDS011;23441;50.856;6.076;2023-07-31T11:56:14;4.43;;;3.10;;
37593;SDS011;23441;50.856;6.076;2023-07-31T11:58:43;4.05;;;3.10;;
37593;SDS011;23441;50.856;6.076;2023-07-31T12:01:14;5.63;;;2.88;;
37593;SDS011;23441;50.856;6.076;2023-07-31T12:03:43;6.07;;;3.10;;
37593;SDS011;23441;50.856;6.076;2023-07-31T12:06:10;7.47;;;3.00;;
37593;SDS011;23441;50.856;6.076;2023-07-31T12:08:36;6.68;;;3.33;;
37593;SDS011;23441;50.856;6.076;2023-07-31T12:11:05;7.78;;;3.75;;
37593;SDS011;23441;50.856;6.076;2023-07-31T12:13:32;8.60;;;4.53;;
37593;SDS011;23441;50.856;6.076;2023-07-31T12:15:59;4.97;;;3.22;;
37593;SDS011;23441;50.856;6.076;2023-07-31T12:18:28;5.38;;;3.22;;
37593;SDS011;23441;50.856;6.076;2023-07-31T12:20:58;6.22;;;3.80;;
37593;SDS011;23441;50.856;6.076;2023-07-31T12:23:26;6.78;;;3.15;;
37593;SDS011;23441;50.856;6.076;2023-07-31T12:26:05;4.88;;;3.45;;
37593;SDS011;23441;50.856;6.076;2023-07-31T12:28:36;6.15;;;3.50;;
37593;SDS011;23441;50.856;6.076;2023-07-31T12:31:05;6.32;;;3.53;;
37593;SDS011;23441;50.856;6.076;2023-07-31T12:33:32;5.28;;;3.38;;
37593;SDS011;23441;50.856;6.076;2023-07-31T12:36:00;8.00;;;3.38;;
37593;SDS011;23441;50.856;6.076;2023-07-31T12:38:27;8.55;;;3.38;;
37593;SDS011;23441;50.856;6.076;2023-07-31T12:40:52;8.77;;;3.55;;
37593;SDS011;23441;50.856;6.076;2023-07-31T12:43:18;8.18;;;3.53;;
37593;SDS011;23441;50.856;6.076;2023-07-31T12:45:44;8.55;;;3.40;;
37593;SDS011;23441;50.856;6.076;2023-07-31T12:48:09;5.75;;;3.10;;
37593;SDS011;23441;50.856;6.076;2023-07-31T12:50:35;5.97;;;3.13;;
37593;SDS011;23441;50.856;6.076;2023-07-31T12:53:04;6.00;;;3.45;;
37593;SDS011;23441;50.856;6.076;2023-07-31T12:55:29;3.80;;;3.03;;
37593;SDS011;23441;50.856;6.076;2023-07-31T12:57:55;6.03;;;3.40;;
37593;SDS011;23441;50.856;6.076;2023-07-31T13:00:21;5.05;;;2.83;;
37593;SDS011;23441;50.856;6.076;2023-07-31T13:02:48;8.30;;;3.13;;
37593;SDS011;23441;50.856;6.076;2023-07-31T13:05:14;5.65;;;3.50;;
37593;SDS011;23441;50.856;6.076;2023-07-31T13:07:40;5.50;;;3.17;;
37593;SDS011;23441;50.856;6.076;2023-07-31T13:10:06;5.85;;;2.80;;
37593;SDS011;23441;50.856;6.076;2023-07-31T13:12:32;3.70;;;2.90;;
37593;SDS011;23441;50.856;6.076;2023-07-31T13:14:58;5.45;;;2.78;;
37593;SDS011;23441;50.856;6.076;2023-07-31T13:17:24;4.20;;;2.60;;
37593;SDS011;23441;50.856;6.076;2023-07-31T13:19:51;4.78;;;2.40;;
37593;SDS011;23441;50.856;6.076;2023-07-31T13:22:16;3.88;;;2.88;;
37593;SDS011;23441;50.856;6.076;2023-07-31T13:24:42;3.60;;;2.30;;
37593;SDS011;23441;50.856;6.076;2023-07-31T13:27:08;4.32;;;2.75;;
37593;SDS011;23441;50.856;6.076;2023-07-31T13:29:33;5.25;;;2.50;;
37593;SDS011;23441;50.856;6.076;2023-07-31T13:31:59;6.07;;;2.97;;
37593;SDS011;23441;50.856;6.076;2023-07-31T13:34:24;3.80;;;2.55;;
37593;SDS011;23441;50.856;6.076;2023-07-31T13:36:50;5.70;;;2.90;;
37593;SDS011;23441;50.856;6.076;2023-07-31T13:39:16;5.35;;;3.42;;
37593;SDS011;23441;50.856;6.076;2023-07-31T13:41:41;5.50;;;3.13;;
37593;SDS011;23441;50.856;6.076;2023-07-31T13:44:07;4.57;;;3.33;;
37593;SDS011;23441;50.856;6.076;2023-07-31T13:46:33;4.60;;;3.13;;
37593;SDS011;23441;50.856;6.076;2023-07-31T13:48:59;4.70;;;3.38;;
37593;SDS011;23441;50.856;6.076;2023-07-31T13:51:25;6.03;;;3.47;;
37593;SDS011;23441;50.856;6.076;2023-07-31T13:53:50;5.05;;;3.20;;
37593;SDS011;23441;50.856;6.076;2023-07-31T13:56:16;5.35;;;3.72;;
37593;SDS011;23441;50.856;6.076;2023-07-31T13:58:42;11.55;;;3.58;;
37593;SDS011;23441;50.856;6.076;2023-07-31T14:01:08;4.18;;;3.20;;
37593;SDS011;23441;50.856;6.076;2023-07-31T14:03:33;4.95;;;3.35;;
37593;SDS011;23441;50.856;6.076;2023-07-31T14:05:59;7.05;;;3.88;;
37593;SDS011;23441;50.856;6.076;2023-07-31T14:08:25;6.82;;;3.75;;
37593;SDS011;23441;50.856;6.076;2023-07-31T14:10:51;5.38;;;4.05;;
37593;SDS011;23441;50.856;6.076;2023-07-31T14:13:16;5.55;;;3.50;;
37593;SDS011;23441;50.856;6.076;2023-07-31T14:15:42;5.43;;;3.67;;
37593;SDS011;23441;50.856;6.076;2023-07-31T14:18:11;7.13;;;4.03;;
37593;SDS011;23441;50.856;6.076;2023-07-31T14:20:36;5.47;;;3.70;;
37593;SDS011;23441;50.856;6.076;2023-07-31T14:23:02;6.25;;;3.75;;
37593;SDS011;23441;50.856;6.076;2023-07-31T14:25:28;9.38;;;4.15;;
37593;SDS011;23441;50.856;6.076;2023-07-31T14:27:54;6.57;;;3.72;;
37593;SDS011;23441;50.856;6.076;2023-07-31T14:30:20;5.25;;;3.72;;
37593;SDS011;23441;50.856;6.076;2023-07-31T14:32:46;8.98;;;4.00;;
37593;SDS011;23441;50.856;6.076;2023-07-31T14:35:12;9.30;;;4.13;;
37593;SDS011;23441;50.856;6.076;2023-07-31T14:37:41;6.72;;;3.50;;
37593;SDS011;23441;50.856;6.076;2023-07-31T14:40:08;11.55;;;4.32;;
37593;SDS011;23441;50.856;6.076;2023-07-31T14:42:35;7.68;;;4.03;;
37593;SDS011;23441;50.856;6.076;2023-07-31T14:45:01;6.82;;;3.88;;
37593;SDS011;23441;50.856;6.076;2023-07-31T14:47:28;8.43;;;4.50;;
37593;SDS011;23441;50.856;6.076;2023-07-31T14:49:55;7.55;;;4.15;;
37593;SDS011;23441;50.856;6.076;2023-07-31T14:52:21;6.22;;;4.18;;
37593;SDS011;23441;50.856;6.076;2023-07-31T14:54:47;7.05;;;4.05;;
37593;SDS011;23441;50.856;6.076;2023-07-31T14:57:13;7.80;;;4.10;;
37593;SDS011;23441;50.856;6.076;2023-07-31T14:59:39;7.70;;;3.95;;
37593;SDS011;23441;50.856;6.076;2023-07-31T15:02:04;6.15;;;4.60;;
37593;SDS011;23441;50.856;6.076;2023-07-31T15:04:31;8.32;;;4.47;;
37593;SDS011;23441;50.856;6.076;2023-07-31T15:06:56;6.70;;;4.35;;
37593;SDS011;23441;50.856;6.076;2023-07-31T15:09:22;9.13;;;5.68;;
37593;SDS011;23441;50.856;6.076;2023-07-31T15:11:47;10.20;;;4.60;;
37593;SDS011;23441;50.856;6.076;2023-07-31T15:14:13;7.07;;;4.32;;